createdAt,value
2024-01-25T00:00:43.243Z,6.57
2024-01-25T00:03:11.180Z,6.27
2024-01-25T00:05:40.453Z,7.93
2024-01-25T00:08:08.638Z,6.87
2024-01-25T00:10:36.570Z,6.83
2024-01-25T00:13:04.751Z,7.40
2024-01-25T00:15:32.657Z,6.57
2024-01-25T00:18:00.624Z,7.20
2024-01-25T00:20:28.643Z,7.30
2024-01-25T00:22:58.228Z,6.27
2024-01-25T00:25:26.261Z,6.83
2024-01-25T00:27:54.796Z,7.23
2024-01-25T00:30:22.823Z,6.93
2024-01-25T00:32:50.814Z,6.60
2024-01-25T00:35:20.616Z,7.07
2024-01-25T00:37:49.178Z,6.77
2024-01-25T00:40:19.814Z,7.00
2024-01-25T00:42:53.917Z,7.00
2024-01-25T00:45:22.990Z,6.30
2024-01-25T00:47:51.678Z,6.77
2024-01-25T00:50:22.235Z,7.00
2024-01-25T00:52:50.904Z,6.77
2024-01-25T00:55:21.275Z,6.80
2024-01-25T00:57:49.942Z,6.87
2024-01-25T01:00:18.076Z,6.57
2024-01-25T01:02:47.183Z,5.73
2024-01-25T01:05:16.512Z,7.50
2024-01-25T01:07:46.059Z,6.70
2024-01-25T01:10:15.332Z,6.87
2024-01-25T01:12:44.764Z,6.20
2024-01-25T01:15:12.654Z,8.70
2024-01-25T01:17:40.548Z,7.20
2024-01-25T01:20:09.658Z,7.93
2024-01-25T01:22:37.641Z,6.83
2024-01-25T01:25:07.035Z,8.23
2024-01-25T01:27:34.953Z,7.47
2024-01-25T01:30:04.422Z,6.87
2024-01-25T01:32:32.304Z,7.63
2024-01-25T01:35:00.410Z,6.80
2024-01-25T01:37:28.496Z,7.90
2024-01-25T01:39:57.290Z,6.67
2024-01-25T01:42:25.296Z,6.33
2024-01-25T01:44:54.813Z,7.80
2024-01-25T01:47:24.492Z,7.00
2024-01-25T01:49:52.678Z,6.10
2024-01-25T01:52:21.361Z,7.53
2024-01-25T01:54:50.006Z,6.93
2024-01-25T01:57:19.061Z,7.10
2024-01-25T01:59:48.016Z,7.73
2024-01-25T02:02:15.932Z,7.90
2024-01-25T02:04:45.949Z,6.60
2024-01-25T02:07:15.601Z,6.63
2024-01-25T02:09:43.606Z,7.40
2024-01-25T02:12:11.527Z,6.53
2024-01-25T02:14:39.387Z,6.60
2024-01-25T02:17:07.277Z,7.37
2024-01-25T02:19:35.426Z,7.27
2024-01-25T02:22:07.151Z,7.17
2024-01-25T02:24:36.788Z,6.23
2024-01-25T02:27:06.165Z,6.60
2024-01-25T02:29:34.152Z,6.57
2024-01-25T02:32:02.015Z,6.77
2024-01-25T02:34:30.004Z,7.90
2024-01-25T02:36:58.086Z,6.67
2024-01-25T02:39:25.970Z,6.70
2024-01-25T02:41:55.165Z,6.93
2024-01-25T02:44:23.036Z,7.13
2024-01-25T02:46:51.124Z,6.90
2024-01-25T02:49:19.182Z,6.87
2024-01-25T02:51:47.146Z,7.23
2024-01-25T02:54:15.039Z,6.83
2024-01-25T02:56:42.893Z,7.20
2024-01-25T02:59:12.093Z,9.33
2024-01-25T03:01:42.610Z,6.57
2024-01-25T03:04:11.014Z,6.67
2024-01-25T03:06:39.134Z,6.97
2024-01-25T03:09:07.031Z,6.63
2024-01-25T03:11:34.978Z,6.70
2024-01-25T03:14:02.871Z,7.37
2024-01-25T03:16:32.101Z,8.00
2024-01-25T03:19:00.124Z,6.53
2024-01-25T03:21:28.029Z,6.57
2024-01-25T03:23:56.335Z,7.23
2024-01-25T03:26:24.247Z,7.13
2024-01-25T03:28:52.109Z,7.13
2024-01-25T03:31:20.114Z,7.10
2024-01-25T03:33:50.115Z,6.57
2024-01-25T03:36:18.452Z,6.83
2024-01-25T03:38:46.337Z,7.03
2024-01-25T03:41:14.285Z,7.87
2024-01-25T03:43:44.389Z,6.93
2024-01-25T03:46:13.328Z,7.53
2024-01-25T03:48:41.627Z,7.47
2024-01-25T03:51:11.152Z,7.67
2024-01-25T03:53:39.128Z,7.30
2024-01-25T03:56:13.248Z,6.47
2024-01-25T03:58:41.265Z,7.07
2024-01-25T04:01:10.329Z,6.77
2024-01-25T04:03:38.574Z,6.70
2024-01-25T04:06:07.044Z,7.53
2024-01-25T04:08:36.303Z,7.50
2024-01-25T04:11:04.558Z,6.50
2024-01-25T04:13:32.439Z,5.63
2024-01-25T04:16:00.786Z,7.63
2024-01-25T04:18:28.866Z,6.90
2024-01-25T04:20:56.822Z,7.10
2024-01-25T04:23:24.669Z,6.70
2024-01-25T04:25:56.322Z,6.73
2024-01-25T04:28:24.412Z,7.03
2024-01-25T04:30:52.406Z,7.43
2024-01-25T04:33:20.356Z,7.10
2024-01-25T04:35:48.347Z,7.43
2024-01-25T04:38:16.247Z,7.17
2024-01-25T04:40:44.246Z,6.90
2024-01-25T04:43:14.100Z,6.70
2024-01-25T04:45:42.132Z,6.57
2024-01-25T04:48:10.156Z,6.80
2024-01-25T04:50:40.141Z,7.13
2024-01-25T04:53:08.053Z,7.30
2024-01-25T04:55:36.043Z,6.70
2024-01-25T04:58:03.961Z,7.23
2024-01-25T05:00:33.231Z,8.10
2024-01-25T05:03:01.285Z,7.20
2024-01-25T05:05:29.179Z,7.47
2024-01-25T05:07:57.273Z,8.47
2024-01-25T05:10:26.620Z,8.40
2024-01-25T05:12:54.663Z,7.50
2024-01-25T05:15:22.498Z,7.07
2024-01-25T05:17:51.867Z,7.17
2024-01-25T05:20:20.159Z,6.60
2024-01-25T05:22:48.382Z,6.93
2024-01-25T05:25:16.541Z,7.13
2024-01-25T05:27:44.622Z,7.90
2024-01-25T05:30:13.301Z,7.37
2024-01-25T05:32:41.167Z,9.03
2024-01-25T05:35:10.966Z,6.77
2024-01-25T05:37:38.912Z,7.57
2024-01-25T05:40:08.134Z,6.87
2024-01-25T05:42:36.116Z,6.90
2024-01-25T05:45:04.555Z,7.30
2024-01-25T05:47:32.582Z,8.20
2024-01-25T05:50:01.081Z,8.00
2024-01-25T05:52:30.592Z,7.57
2024-01-25T05:55:01.412Z,8.03
2024-01-25T05:57:31.188Z,9.93
2024-01-25T05:59:59.219Z,7.00
2024-01-25T06:02:27.213Z,8.80
2024-01-25T06:04:56.178Z,8.47
2024-01-25T06:07:24.328Z,6.97
2024-01-25T06:09:53.816Z,7.70
2024-01-25T06:12:22.087Z,8.47
2024-01-25T06:14:50.018Z,7.47
2024-01-25T06:17:17.911Z,6.40
2024-01-25T06:19:46.396Z,8.03
2024-01-25T06:22:14.471Z,7.57
2024-01-25T06:24:42.421Z,7.93
2024-01-25T06:27:12.135Z,7.30
2024-01-25T06:29:39.987Z,8.53
2024-01-25T06:32:11.428Z,7.63
2024-01-25T06:34:42.235Z,6.53
2024-01-25T06:37:13.267Z,7.10
2024-01-25T06:39:41.331Z,7.23
2024-01-25T06:42:09.195Z,7.50
2024-01-25T06:44:38.570Z,8.00
2024-01-25T06:47:08.240Z,9.30
2024-01-25T06:49:36.831Z,7.90
2024-01-25T06:52:05.559Z,7.87
2024-01-25T06:54:33.702Z,8.50
2024-01-25T06:57:01.592Z,7.40
2024-01-25T06:59:28.451Z,7.87
2024-01-25T07:01:58.393Z,7.97
2024-01-25T07:04:26.899Z,6.67
2024-01-25T07:06:55.418Z,7.43
2024-01-25T07:09:23.398Z,7.93
2024-01-25T07:11:51.245Z,7.40
2024-01-25T07:14:19.082Z,7.13
2024-01-25T07:16:46.981Z,7.90
2024-01-25T07:19:16.349Z,7.23
2024-01-25T07:21:46.786Z,7.73
2024-01-25T07:24:14.741Z,6.80
2024-01-25T07:26:42.597Z,7.00
2024-01-25T07:29:10.408Z,7.20
2024-01-25T07:31:38.510Z,6.83
2024-01-25T07:34:06.494Z,8.30
2024-01-25T07:36:35.851Z,7.07
2024-01-25T07:39:03.975Z,7.87
2024-01-25T07:41:31.933Z,9.30
2024-01-25T07:43:59.753Z,6.97
2024-01-25T07:46:27.668Z,7.53
2024-01-25T07:48:54.745Z,6.90
2024-01-25T07:51:22.816Z,7.93
2024-01-25T07:53:52.061Z,7.40
2024-01-25T07:56:19.968Z,6.53
2024-01-25T07:58:49.300Z,7.20
2024-01-25T08:01:19.788Z,6.30
2024-01-25T08:03:47.908Z,6.37
2024-01-25T08:06:16.354Z,8.17
2024-01-25T08:08:44.302Z,7.93
2024-01-25T08:11:13.871Z,7.13
2024-01-25T08:13:44.893Z,7.23
2024-01-25T08:16:13.364Z,7.40
2024-01-25T08:18:41.378Z,7.53
2024-01-25T08:21:09.393Z,8.23
2024-01-25T08:23:37.327Z,6.33
2024-01-25T08:26:05.403Z,9.27
2024-01-25T08:28:34.694Z,8.80
2024-01-25T08:31:02.615Z,8.23
2024-01-25T08:33:30.553Z,8.60
2024-01-25T08:35:58.825Z,8.10
2024-01-25T08:38:26.843Z,8.03
2024-01-25T08:40:54.664Z,9.53
2024-01-25T08:43:22.609Z,8.20
2024-01-25T08:45:51.960Z,8.20
2024-01-25T08:48:19.952Z,7.50
2024-01-25T08:50:48.251Z,8.33
2024-01-25T08:53:17.254Z,7.50
2024-01-25T08:55:45.206Z,8.60
2024-01-25T08:58:13.086Z,7.53
2024-01-25T09:00:41.146Z,8.33
2024-01-25T09:03:10.421Z,8.17
2024-01-25T09:05:41.979Z,8.10
2024-01-25T09:08:10.442Z,9.00
2024-01-25T09:10:38.839Z,8.50
2024-01-25T09:13:06.964Z,8.77
2024-01-25T09:15:35.027Z,7.90
2024-01-25T09:18:03.075Z,8.67
2024-01-25T09:20:32.832Z,8.60
2024-01-25T09:23:00.779Z,8.10
2024-01-25T09:25:28.976Z,7.70
2024-01-25T09:27:58.114Z,8.70
2024-01-25T09:30:27.493Z,7.97
2024-01-25T09:32:55.696Z,7.60
2024-01-25T09:35:23.988Z,9.47
2024-01-25T09:37:53.691Z,10.07
2024-01-25T09:40:22.762Z,8.57
2024-01-25T09:42:51.215Z,9.27
2024-01-25T09:45:20.105Z,9.13
2024-01-25T09:47:49.281Z,9.13
2024-01-25T09:50:17.534Z,8.70
2024-01-25T09:52:47.025Z,8.80
2024-01-25T09:55:20.362Z,8.37
2024-01-25T09:57:51.160Z,8.87
2024-01-25T10:00:21.173Z,9.27
2024-01-25T10:02:50.606Z,8.10
2024-01-25T10:05:19.468Z,8.67
2024-01-25T10:07:48.380Z,8.73
2024-01-25T10:10:17.692Z,7.43
2024-01-25T10:12:45.989Z,8.77
2024-01-25T10:15:13.926Z,9.13
2024-01-25T10:20:16.484Z,8.73
2024-01-25T10:22:45.717Z,9.57
2024-01-25T10:25:16.506Z,8.77
2024-01-25T10:27:46.402Z,9.37
2024-01-25T10:30:16.047Z,9.03
2024-01-25T10:32:44.526Z,8.57
2024-01-25T10:35:14.770Z,9.63
2024-01-25T10:37:42.994Z,9.23
2024-01-25T10:40:12.543Z,10.07
2024-01-25T10:42:40.550Z,8.50
2024-01-25T10:45:11.172Z,9.23
2024-01-25T10:47:42.100Z,8.93
2024-01-25T10:50:11.366Z,10.40
2024-01-25T10:52:40.861Z,8.93
2024-01-25T10:55:10.046Z,10.17
2024-01-25T10:57:38.801Z,10.10
2024-01-25T11:00:11.660Z,9.27
2024-01-25T11:02:40.370Z,10.57
2024-01-25T11:05:11.982Z,9.97
2024-01-25T11:07:47.355Z,10.83
2024-01-25T11:10:17.868Z,10.50
2024-01-25T11:12:53.852Z,10.00
2024-01-25T11:15:33.337Z,9.63
2024-01-25T11:18:03.624Z,9.33
2024-01-25T11:20:33.315Z,10.30
2024-01-25T11:23:03.557Z,9.90
2024-01-25T11:25:32.630Z,9.87
2024-01-25T11:28:01.895Z,9.50
2024-01-25T11:30:32.550Z,11.07
2024-01-25T11:33:00.443Z,10.70
2024-01-25T11:35:29.141Z,9.80
2024-01-25T11:37:58.114Z,10.23
2024-01-25T11:40:26.506Z,10.60
2024-01-25T11:42:54.808Z,10.07
2024-01-25T11:45:23.787Z,10.37
2024-01-25T11:47:53.888Z,12.57
2024-01-25T11:50:23.998Z,13.73
2024-01-25T11:52:52.093Z,13.70
2024-01-25T11:55:20.349Z,12.77
2024-01-25T11:57:48.702Z,12.67
2024-01-25T12:00:17.644Z,12.23
2024-01-25T12:02:45.859Z,13.07
2024-01-25T12:05:15.557Z,14.83
2024-01-25T12:07:43.668Z,15.47
2024-01-25T12:10:18.309Z,14.70
2024-01-25T12:12:46.423Z,18.77
2024-01-25T12:15:14.570Z,14.93
2024-01-25T12:17:42.699Z,15.53
2024-01-25T12:20:15.188Z,15.33
2024-01-25T12:22:45.138Z,13.70
2024-01-25T12:25:14.424Z,14.17
2024-01-25T12:27:43.178Z,14.10
2024-01-25T12:30:12.019Z,13.20
2024-01-25T12:32:40.146Z,13.53
2024-01-25T12:35:09.152Z,13.57
2024-01-25T12:37:38.775Z,13.47
2024-01-25T12:40:08.975Z,12.97
2024-01-25T12:42:37.042Z,13.10
2024-01-25T12:45:05.918Z,13.30
2024-01-25T12:47:34.691Z,12.67
2024-01-25T12:50:03.660Z,13.10
2024-01-25T12:52:32.188Z,12.90
2024-01-25T12:55:03.832Z,12.23
2024-01-25T12:57:32.189Z,11.97
2024-01-25T13:00:01.968Z,10.77
2024-01-25T13:02:30.317Z,10.50
2024-01-25T13:04:58.386Z,12.03
2024-01-25T13:07:26.351Z,11.20
2024-01-25T13:09:54.313Z,10.17
2024-01-25T13:12:23.694Z,9.53
2024-01-25T13:14:51.557Z,11.37
2024-01-25T13:17:22.391Z,9.87
2024-01-25T13:19:50.379Z,9.17
2024-01-25T13:22:21.995Z,9.40
2024-01-25T13:24:49.915Z,10.13
2024-01-25T13:27:18.041Z,9.53
2024-01-25T13:29:47.387Z,9.37
2024-01-25T13:32:15.350Z,9.57
2024-01-25T13:34:43.311Z,8.60
2024-01-25T13:37:11.158Z,9.17
2024-01-25T13:39:39.053Z,8.53
2024-01-25T13:42:07.038Z,8.27
2024-01-25T13:44:34.942Z,9.10
2024-01-25T13:47:04.171Z,8.47
2024-01-25T13:49:32.224Z,7.30
2024-01-25T13:52:03.676Z,9.00
2024-01-25T13:54:31.705Z,8.97
2024-01-25T13:56:59.626Z,7.60
2024-01-25T13:59:27.485Z,8.73
2024-01-25T14:01:55.506Z,8.17
2024-01-25T14:04:24.925Z,8.50
2024-01-25T14:06:52.964Z,8.23
2024-01-25T14:09:21.039Z,8.27
2024-01-25T14:11:49.493Z,7.97
2024-01-25T14:14:17.507Z,7.97
2024-01-25T14:16:45.433Z,8.67
2024-01-25T14:19:14.425Z,7.10
2024-01-25T14:21:43.818Z,8.00
2024-01-25T14:24:12.101Z,8.00
2024-01-25T14:26:40.366Z,8.47
2024-01-25T14:29:08.572Z,7.10
2024-01-25T14:31:36.484Z,7.13
2024-01-25T14:34:04.530Z,7.80
2024-01-25T14:36:32.502Z,8.03
2024-01-25T14:39:01.785Z,7.17
2024-01-25T14:41:29.875Z,7.40
2024-01-25T14:43:57.782Z,7.70
2024-01-25T14:46:25.649Z,7.20
2024-01-25T14:48:53.591Z,7.37
2024-01-25T14:51:21.768Z,7.80
2024-01-25T14:53:49.679Z,7.83
2024-01-25T14:56:18.943Z,8.27
2024-01-25T14:58:46.888Z,7.47
2024-01-25T15:01:16.365Z,7.50
2024-01-25T15:03:44.492Z,8.43
2024-01-25T15:06:12.513Z,8.00
2024-01-25T15:08:40.891Z,9.27
2024-01-25T15:11:09.041Z,8.00
2024-01-25T15:13:38.774Z,7.20
2024-01-25T15:16:07.094Z,8.27
2024-01-25T15:18:35.171Z,7.70
2024-01-25T15:21:03.157Z,7.00
2024-01-25T15:23:31.505Z,6.80
2024-01-25T15:25:59.514Z,7.70
2024-01-25T15:28:27.424Z,8.07
2024-01-25T15:30:56.706Z,7.37
2024-01-25T15:33:25.134Z,7.67
2024-01-25T15:35:53.284Z,7.43
2024-01-25T15:38:21.332Z,7.33
2024-01-25T15:40:49.354Z,7.43
2024-01-25T15:43:17.258Z,6.63
2024-01-25T15:45:45.368Z,7.13
2024-01-25T15:48:15.074Z,7.23
2024-01-25T15:50:43.050Z,7.40
2024-01-25T15:53:12.159Z,6.60
2024-01-25T15:55:40.315Z,8.00
2024-01-25T15:58:08.196Z,7.40
2024-01-25T16:00:37.106Z,7.07
2024-01-25T16:03:05.639Z,6.43
2024-01-25T16:05:35.203Z,5.67
2024-01-25T16:08:03.102Z,6.17
2024-01-25T16:10:31.028Z,5.80
2024-01-25T16:12:58.897Z,6.27
2024-01-25T16:15:29.021Z,7.67
2024-01-25T16:17:57.126Z,7.43
2024-01-25T16:20:35.434Z,6.73
2024-01-25T16:23:03.380Z,6.90
2024-01-25T16:25:32.119Z,5.80
2024-01-25T16:28:00.782Z,6.73
2024-01-25T16:30:28.835Z,7.83
2024-01-25T16:32:58.478Z,5.90
2024-01-25T16:35:26.387Z,7.77
2024-01-25T16:37:55.601Z,5.30
2024-01-25T16:40:23.439Z,6.10
2024-01-25T16:42:51.722Z,5.50
2024-01-25T16:45:19.998Z,5.93
2024-01-25T16:47:48.646Z,6.40
2024-01-25T16:50:16.846Z,6.50
2024-01-25T16:52:44.953Z,6.93
2024-01-25T16:55:14.278Z,6.67
2024-01-25T16:57:42.207Z,5.83
2024-01-25T17:00:10.989Z,5.67
2024-01-25T17:02:39.060Z,5.47
2024-01-25T17:05:07.236Z,6.63
2024-01-25T17:07:35.296Z,6.30
2024-01-25T17:10:03.357Z,6.20
2024-01-25T17:12:33.230Z,5.80
2024-01-25T17:15:01.108Z,7.77
2024-01-25T17:17:29.078Z,5.23
2024-01-25T17:19:58.212Z,5.30
2024-01-25T17:22:27.126Z,6.20
2024-01-25T17:24:55.144Z,5.13
2024-01-25T17:27:23.668Z,6.23
2024-01-25T17:29:52.976Z,6.20
2024-01-25T17:32:20.874Z,5.50
2024-01-25T17:34:48.833Z,6.00
2024-01-25T17:37:16.918Z,5.80
2024-01-25T17:39:45.251Z,5.70
2024-01-25T17:42:13.592Z,6.13
2024-01-25T17:44:41.621Z,5.13
2024-01-25T17:47:10.879Z,5.37
2024-01-25T17:49:38.816Z,4.93
2024-01-25T17:52:08.634Z,5.30
2024-01-25T17:54:37.610Z,5.37
2024-01-25T17:57:06.179Z,6.47
2024-01-25T17:59:34.020Z,5.80
2024-01-25T18:02:04.004Z,5.30
2024-01-25T18:04:33.267Z,5.23
2024-01-25T18:07:01.208Z,6.23
2024-01-25T18:09:29.188Z,5.07
2024-01-25T18:11:57.167Z,5.73
2024-01-25T18:14:25.048Z,5.77
2024-01-25T18:16:52.898Z,5.33
2024-01-25T18:19:20.872Z,6.03
2024-01-25T18:21:50.270Z,6.30
2024-01-25T18:24:18.427Z,5.60
2024-01-25T18:26:48.217Z,7.27
2024-01-25T18:29:19.201Z,6.33
2024-01-25T18:31:47.228Z,6.17
2024-01-25T18:34:15.139Z,6.43
2024-01-25T18:36:44.598Z,6.27
2024-01-25T18:39:14.010Z,6.50
2024-01-25T18:41:41.901Z,6.10
2024-01-25T18:44:09.793Z,6.20
2024-01-25T18:46:37.833Z,6.90
2024-01-25T18:49:05.915Z,6.30
2024-01-25T18:51:33.961Z,6.50
2024-01-25T18:54:02.292Z,6.73
2024-01-25T18:56:32.113Z,6.73
2024-01-25T18:59:00.753Z,6.63
2024-01-25T19:01:29.497Z,7.00
2024-01-25T19:03:58.054Z,6.70
2024-01-25T19:06:30.096Z,7.27
2024-01-25T19:08:58.440Z,8.27
2024-01-25T19:11:26.548Z,7.40
2024-01-25T19:13:55.835Z,6.87
2024-01-25T19:16:23.729Z,7.27
2024-01-25T19:18:52.394Z,6.80
2024-01-25T19:21:20.674Z,6.67
2024-01-25T19:23:48.688Z,6.90
2024-01-25T19:26:16.604Z,7.60
2024-01-25T19:28:45.212Z,7.10
2024-01-25T19:31:17.450Z,7.57
2024-01-25T19:33:45.593Z,6.43
2024-01-25T19:36:13.583Z,6.63
2024-01-25T19:38:43.266Z,6.93
2024-01-25T19:41:12.342Z,7.37
2024-01-25T19:43:40.181Z,7.23
2024-01-25T19:46:08.125Z,7.73
2024-01-25T19:48:37.535Z,9.77
2024-01-25T19:51:06.122Z,8.07
2024-01-25T19:53:34.072Z,7.47
2024-01-25T19:56:02.059Z,7.63
2024-01-25T19:58:30.466Z,8.67
2024-01-25T20:00:59.648Z,8.83
2024-01-25T20:03:28.159Z,7.97
2024-01-25T20:05:58.141Z,9.10
2024-01-25T20:08:28.288Z,9.73
2024-01-25T20:10:56.382Z,9.30
2024-01-25T20:13:24.296Z,9.27
2024-01-25T20:15:53.930Z,8.20
2024-01-25T20:18:21.842Z,9.77
2024-01-25T20:20:49.890Z,9.80
2024-01-25T20:23:19.240Z,10.50
2024-01-25T20:25:47.169Z,10.47
2024-01-25T20:28:15.186Z,10.70
2024-01-25T20:30:43.100Z,11.07
2024-01-25T20:33:11.141Z,9.77
2024-01-25T20:35:39.194Z,10.30
2024-01-25T20:38:07.056Z,10.83
2024-01-25T20:40:36.672Z,12.20
2024-01-25T20:43:04.897Z,12.10
2024-01-25T20:45:34.156Z,10.97
2024-01-25T20:48:02.385Z,13.13
2024-01-25T20:50:37.615Z,12.90
2024-01-25T20:53:07.211Z,12.77
2024-01-25T20:55:38.111Z,12.87
2024-01-25T20:58:06.032Z,14.37
2024-01-25T21:00:34.662Z,13.93
2024-01-25T21:03:03.212Z,13.97
2024-01-25T21:05:31.722Z,13.53
2024-01-25T21:08:00.467Z,14.03
2024-01-25T21:10:29.197Z,13.10
2024-01-25T21:12:59.038Z,12.97
2024-01-25T21:15:27.476Z,12.50
2024-01-25T21:17:55.512Z,13.63
2024-01-25T21:20:23.450Z,12.70
2024-01-25T21:22:51.361Z,11.87
2024-01-25T21:25:19.387Z,12.00
2024-01-25T21:27:47.692Z,11.37
2024-01-25T21:30:17.628Z,12.27
2024-01-25T21:32:45.693Z,12.97
2024-01-25T21:35:13.818Z,12.00
2024-01-25T21:37:41.893Z,12.57
2024-01-25T21:40:10.594Z,11.97
2024-01-25T21:42:38.785Z,12.57
2024-01-25T21:45:09.416Z,12.37
2024-01-25T21:47:40.778Z,12.97
2024-01-25T21:50:09.962Z,12.43
2024-01-25T21:52:38.556Z,12.23
2024-01-25T21:55:11.323Z,11.70
2024-01-25T21:57:39.671Z,10.57
2024-01-25T22:00:08.798Z,13.30
2024-01-25T22:02:36.725Z,11.23
2024-01-25T22:05:07.509Z,10.87
2024-01-25T22:07:35.443Z,9.70
2024-01-25T22:10:03.459Z,9.87
2024-01-25T22:12:31.416Z,10.43
2024-01-25T22:14:59.301Z,8.73
2024-01-25T22:17:27.197Z,7.63
2024-01-25T22:19:55.128Z,7.73
2024-01-25T22:22:24.400Z,7.40
2024-01-25T22:24:52.300Z,7.37
2024-01-25T22:27:20.575Z,7.67
2024-01-25T22:29:48.461Z,7.70
2024-01-25T22:32:16.325Z,7.27
2024-01-25T22:34:44.339Z,7.77
2024-01-25T22:37:12.244Z,7.80
2024-01-25T22:39:41.614Z,7.60
2024-01-25T22:42:09.920Z,8.13
2024-01-25T22:44:37.849Z,7.63
2024-01-25T22:47:06.690Z,7.90
2024-01-25T22:49:35.038Z,7.67
2024-01-25T22:52:03.121Z,7.40
2024-01-25T22:54:31.248Z,7.93
2024-01-25T22:57:01.843Z,7.70
2024-01-25T22:59:29.851Z,8.23
2024-01-25T23:01:57.789Z,6.53
2024-01-25T23:04:25.775Z,7.53
2024-01-25T23:06:53.736Z,7.77
2024-01-25T23:09:21.826Z,7.97
2024-01-25T23:11:50.787Z,7.57
2024-01-25T23:14:20.308Z,7.93
2024-01-25T23:16:48.243Z,11.90
2024-01-25T23:19:16.294Z,8.47
2024-01-25T23:21:44.362Z,8.80
2024-01-25T23:24:13.093Z,8.50
2024-01-25T23:26:41.076Z,7.33
2024-01-25T23:29:09.712Z,7.33
2024-01-25T23:31:38.904Z,7.40
2024-01-25T23:34:07.495Z,6.97
2024-01-25T23:36:35.923Z,7.67
2024-01-25T23:39:04.450Z,7.43
2024-01-25T23:41:34.342Z,8.37
2024-01-25T23:44:02.474Z,7.50
2024-01-25T23:46:30.692Z,7.30
2024-01-25T23:49:00.278Z,6.60
2024-01-25T23:51:28.485Z,6.67
2024-01-25T23:53:56.520Z,6.73
2024-01-25T23:56:24.686Z,6.67
2024-01-25T23:58:52.717Z,6.83
